This is the latest recevied weather packets stored in our database for station/object EA5CBT-13. If no packets are shown the sender has not sent any weather packets the latest 10 day(s).
| Time | Temp. | Humidity | Pressure | Rain* | Wind** | Luminosity | Snow |
|---|---|---|---|---|---|---|---|
| 1777546538 | 23.33° C | 59% | 1013.5 hPa | 0 mm | - | - | - |
| 1777543537 | 23.33° C | 60% | 1013.8 hPa | 0 mm | - | - | - |
| 1777541816 | 23.33° C | 60% | 1014 hPa | 0 mm | - | - | - |
| 1777532166 | 20.56° C | 67% | 1013 hPa | 0 mm | - | - | - |
| 1777529735 | 16.11° C | 87% | 1013.1 hPa | 0 mm | - | - | - |
| 1777528518 | 14.44° C | 86% | 1012.7 hPa | 0 mm | - | - | - |
| 1777526754 | 14.44° C | 85% | 1012.4 hPa | 0 mm | - | - | - |
| 1777523775 | 15° C | 85% | 1011.9 hPa | 0 mm | - | - | - |
| 1777523188 | 15° C | 85% | 1011.9 hPa | 0 mm | - | - | - |
| 1777522579 | 15° C | 85% | 1011.7 hPa | 0 mm | - | - | - |
| 1777520129 | 15° C | 85% | 1011.9 hPa | 0 mm | - | - | - |
| 1777514190 | 16.11° C | 86% | 1011.6 hPa | 0 mm | - | - | - |
| 1777512953 | 16.67° C | 87% | 1011.6 hPa | 0 mm | - | - | - |
| 1777511131 | 16.67° C | 86% | 1011.6 hPa | 0 mm | - | - | - |
| 1777508150 | 16.67° C | 87% | 1012.1 hPa | 0 mm | - | - | - |
| 1777505719 | 16.67° C | 86% | 1011.7 hPa | 0 mm | - | - | - |
| 1777505172 | 16.67° C | 85% | 1011.8 hPa | 0 mm | - | - | - |
| 1777502741 | 17.22° C | 84% | 1011.4 hPa | 0 mm | - | - | - |
| 1777502133 | 17.22° C | 83% | 1011.5 hPa | 0 mm | - | - | - |
| 1777499762 | 17.78° C | 76% | 1011.1 hPa | 0 mm | - | - | - |
| 1777490150 | 18.33° C | 73% | 1009.4 hPa | 0 mm | - | - | - |
| 1777489543 | 18.33° C | 72% | 1009.2 hPa | 0 mm | - | - | - |
| 1777487718 | 19.44° C | 71% | 1009.1 hPa | 0 mm | - | - | - |
| 1777486582 | 20° C | 70% | 1008.9 hPa | 0 mm | - | - | - |
| 1777483521 | 20° C | 68% | 1008.5 hPa | 0 mm | - | - | - |
* Rain latest hour (hover to see other rain measurements)
** Current wind speed in m/s (hover to see current wind gust speed)